Time;durP1;ratioP1;P1;durP2;ratioP2;P2;SDS_P1;SDS_P2;PMS_P1;PMS_P2;Temp;Humidity;BMP_temperature;BMP_pressure;BME280_temperature;BME280_humidity;BME280_pressure;Samples;Min_cycle;Max_cycle;Signal;HPM_P1;HPM_P2
2022/11/04 00:03:53;;;;;;;4.65;3.63;;;;;;;10.04;88.80;98879.38;10166929;29;20067;-77
2022/11/04 00:08:58;;;;;;;5.47;4.22;;;;;;;10.14;88.41;98901.59;10159835;29;20076;-78
2022/11/04 00:14:01;;;;;;;6.38;4.15;;;;;;;10.13;88.59;98891.88;10170552;29;20060;-76
2022/11/04 00:19:04;;;;;;;6.47;4.22;;;;;;;10.35;87.38;98883.28;10191962;29;20059;-77
2022/11/04 00:29:31;;;;;;;6.65;4.28;;;;;;;10.22;86.69;98912.38;10164037;29;20071;-78
2022/11/04 00:34:34;;;;;;;7.25;4.88;;;;;;;10.38;86.36;98900.91;10171092;29;20119;-78
2022/11/04 00:39:38;;;;;;;;;;;;;;;10.26;85.96;98884.25;10156608;29;20044;-78
2022/11/04 00:44:40;;;;;;;5.68;4.30;;;;;;;10.38;85.35;98885.63;10163491;29;20029;-78
2022/11/04 00:49:43;;;;;;;4.90;3.80;;;;;;;10.28;85.46;98919.78;10177509;29;20161;-78
2022/11/04 00:54:48;;;;;;;4.38;3.63;;;;;;;10.37;85.00;98916.19;10198390;29;20056;-78
2022/11/04 00:59:51;;;;;;;6.32;3.45;;;;;;;10.20;84.38;98921.59;10182666;29;20048;-78
2022/11/04 01:04:54;;;;;;;;;;;;;;;10.43;84.58;98921.91;10176672;29;20127;-78
2022/11/04 01:09:58;;;;;;;2.70;2.50;;;;;;;10.03;85.43;98917.94;10169875;29;20022;-78
2022/11/04 01:15:01;;;;;;;4.18;3.03;;;;;;;10.33;84.77;98912.09;10154277;29;20127;-78
2022/11/04 01:20:04;;;;;;;3.78;3.42;;;;;;;10.18;84.94;98916.38;10168040;29;20045;-78
2022/11/04 01:25:09;;;;;;;3.70;3.35;;;;;;;10.03;84.67;98916.09;10164995;29;20059;-77
2022/11/04 01:30:12;;;;;;;4.35;3.33;;;;;;;10.11;84.81;98932.25;10140037;29;20413;-78
2022/11/04 01:35:15;;;;;;;4.20;3.75;;;;;;;10.22;84.47;98960.69;10158435;29;20135;-78
2022/11/04 01:40:20;;;;;;;3.15;2.60;;;;;;;9.75;85.11;98997.63;10162801;29;20080;-78
2022/11/04 01:45:22;;;;;;;4.35;3.20;;;;;;;9.86;84.38;99000.13;10156930;29;20048;-78
2022/11/04 01:50:30;;;;;;;2.92;2.67;;;;;;;9.64;84.99;99017.47;10151825;29;20755;-78
2022/11/04 01:55:37;;;;;;;3.88;2.50;;;;;;;9.71;84.04;99023.94;10173751;29;20140;-78
2022/11/04 02:00:42;;;;;;;2.47;2.28;;;;;;;9.60;84.30;99032.16;10174672;29;20090;-77
2022/11/04 02:05:46;;;;;;;4.50;2.10;;;;;;;9.30;83.55;99042.22;10173217;29;20047;-78
2022/11/04 02:10:56;;;;;;;3.08;2.65;;;;;;;9.39;82.92;99041.31;10164870;29;20048;-78
2022/11/04 02:16:09;;;;;;;2.30;2.10;;;;;;;9.17;82.90;99034.53;10159569;29;20090;-77
2022/11/04 02:21:32;;;;;;;2.55;2.35;;;;;;;9.06;83.61;99040.91;10163763;29;20077;-78
2022/11/04 02:27:12;;;;;;;2.47;2.28;;;;;;;8.97;83.47;99038.28;10165628;29;20055;-78
2022/11/04 02:32:24;;;;;;;4.97;4.47;;;;;;;9.00;83.62;99060.25;10153113;29;20044;-78
2022/11/04 02:37:36;;;;;;;6.17;4.50;;;;;;;8.75;83.84;99050.16;10150076;29;20144;-78
2022/11/04 02:42:45;;;;;;;4.55;4.15;;;;;;;8.91;82.89;99054.91;10159041;29;20083;-78
2022/11/04 02:47:55;;;;;;;5.53;4.45;;;;;;;8.98;82.01;99035.44;10134997;29;20048;-78
2022/11/04 02:53:02;;;;;;;5.85;3.90;;;;;;;8.78;82.31;99057.94;10134584;29;20044;-78
2022/11/04 02:58:09;;;;;;;5.60;5.07;;;;;;;8.69;82.05;99034.69;10134338;29;20108;-78
2022/11/04 03:03:17;;;;;;;8.07;6.05;;;;;;;8.92;81.39;99043.25;10143220;29;20056;-78
2022/11/04 03:08:26;;;;;;;11.27;6.78;;;;;;;8.72;80.81;99037.94;10151827;29;20530;-78
2022/11/04 03:13:33;;;;;;;8.80;6.75;;;;;;;8.65;81.86;99057.41;10148199;29;20522;-78
2022/11/04 03:18:47;;;;;;;10.98;7.30;;;;;;;8.90;80.86;99058.59;10159587;29;20119;-78
2022/11/04 03:23:50;;;;;;;10.43;7.78;;;;;;;8.69;81.75;99059.63;10138646;29;20168;-79
2022/11/04 03:29:05;;;;;;;8.18;5.75;;;;;;;8.81;80.66;99073.72;10137923;29;20084;-78
2022/11/04 03:34:10;;;;;;;6.90;6.13;;;;;;;8.80;81.04;99096.97;10158354;29;20261;-78
2022/11/04 03:39:12;;;;;;;7.15;6.45;;;;;;;8.76;81.13;99092.03;10170833;29;20078;-79
2022/11/04 03:44:16;;;;;;;8.90;7.40;;;;;;;8.78;80.49;99108.81;10163323;29;20099;-78
2022/11/04 03:49:21;;;;;;;7.72;6.57;;;;;;;8.46;81.45;99109.97;10158482;29;20123;-78
2022/11/04 03:54:24;;;;;;;10.45;6.85;;;;;;;8.53;80.87;99124.47;10155174;29;20123;-78
2022/11/04 03:59:45;;;;;;;9.45;7.70;;;;;;;8.40;81.66;99110.50;10136626;29;20155;-78
2022/11/04 04:04:57;;;;;;;6.47;5.53;;;;;;;8.47;81.57;99119.66;10156575;29;20095;-78
2022/11/04 04:10:37;;;;;;;9.07;7.53;;;;;;;8.37;82.59;99108.94;10152428;29;20399;-79
2022/11/04 04:15:43;;;;;;;9.27;7.88;;;;;;;8.71;81.35;99118.38;10162759;29;20103;-79
2022/11/04 04:20:49;;;;;;;9.93;7.55;;;;;;;8.62;81.51;99117.41;10156634;29;20123;-78
2022/11/04 04:31:48;;;;;;;10.93;7.07;;;;;;;8.71;81.04;99142.47;10154871;29;20045;-79
2022/11/04 04:36:46;;;;;;;10.30;8.32;;;;;;;8.88;80.42;99156.97;10164014;29;20063;-78
2022/11/04 04:47:11;;;;;;;9.98;7.90;;;;;;;8.67;79.33;99183.94;10168308;29;20387;-78
2022/11/04 04:52:15;;;;;;;8.98;7.53;;;;;;;8.54;79.84;99184.19;10162450;29;20494;-79
2022/11/04 04:57:18;;;;;;;10.35;7.45;;;;;;;8.57;79.64;99190.09;10160704;29;20128;-78
2022/11/04 05:02:20;;;;;;;;;;;;;;;8.79;80.19;99172.91;10151388;29;20588;-78
2022/11/04 05:07:25;;;;;;;11.63;9.18;;;;;;;8.86;79.41;99191.06;10156281;29;19943;-78
2022/11/04 05:13:24;;;;;;;9.88;8.80;;;;;;;8.65;78.73;99216.19;10142229;29;20600;-78
2022/11/04 05:17:54;;;;;;;10.90;7.43;;;;;;;8.33;78.65;99211.88;10155044;29;20466;-78
2022/11/04 05:22:58;;;;;;;10.55;8.43;;;;;;;8.55;79.22;99231.38;10160047;29;20044;-78
2022/11/04 05:28:01;;;;;;;7.03;5.65;;;;;;;8.35;78.03;99241.19;10152212;29;20195;-78
2022/11/04 05:33:04;;;;;;;10.27;7.07;;;;;;;8.62;78.18;99232.53;10156302;29;20060;-78
2022/11/04 05:38:09;;;;;;;13.63;7.20;;;;;;;8.55;77.64;99232.22;10158827;29;20084;-78
2022/11/04 05:43:11;;;;;;;8.65;7.00;;;;;;;8.61;78.76;99244.19;10162400;29;20100;-78
2022/11/04 05:48:14;;;;;;;12.82;8.20;;;;;;;8.71;77.96;99252.25;10163369;29;20052;-78
2022/11/04 05:53:18;;;;;;;11.07;8.55;;;;;;;8.62;78.25;99248.59;10165910;29;20048;-78
2022/11/04 05:58:21;;;;;;;11.75;7.93;;;;;;;8.55;77.50;99240.25;10151016;29;20044;-78
2022/11/04 06:03:24;;;;;;;12.13;7.78;;;;;;;8.39;77.78;99250.59;10152780;29;20131;-78
2022/11/04 06:08:29;;;;;;;;;;;;;;;8.32;78.60;99249.50;10153670;29;20040;-78
2022/11/04 06:13:31;;;;;;;11.82;9.00;;;;;;;8.38;79.20;99278.38;10150269;29;19923;-78
2022/11/04 06:18:34;;;;;;;15.40;8.88;;;;;;;8.58;78.93;99298.88;10145174;29;20092;-77
2022/11/04 06:23:39;;;;;;;13.35;8.70;;;;;;;8.59;79.51;99307.75;10159016;29;20127;-78
2022/11/04 06:28:41;;;;;;;15.30;8.75;;;;;;;8.66;79.35;99308.88;10154252;29;20135;-77
2022/11/04 06:33:44;;;;;;;;;;;;;;;8.69;78.51;99315.78;10153579;29;20052;-78
2022/11/04 06:38:48;;;;;;;13.48;8.95;;;;;;;8.92;78.10;99327.94;10155773;29;20027;-78
2022/11/04 06:43:51;;;;;;;19.67;8.65;;;;;;;8.75;78.20;99328.59;10159208;29;20050;-78
2022/11/04 06:48:55;;;;;;;;;;;;;;;8.73;77.99;99330.59;10164408;29;20436;-78
2022/11/04 06:53:59;;;;;;;12.10;7.82;;;;;;;8.81;77.90;99336.94;10133213;29;19970;-78
2022/11/04 06:59:03;;;;;;;10.20;6.97;;;;;;;8.76;77.72;99354.41;10137014;29;20062;-78
2022/11/04 07:04:06;;;;;;;11.10;7.65;;;;;;;8.82;77.87;99364.56;10155052;29;20131;-78
2022/11/04 07:09:10;;;;;;;;;;;;;;;8.69;77.76;99363.97;10134100;29;20074;-78
2022/11/04 07:14:14;;;;;;;11.68;6.60;;;;;;;8.53;78.27;99356.44;10150204;29;20348;-78
2022/11/04 07:19:17;;;;;;;11.18;6.60;;;;;;;8.64;77.76;99360.84;10153099;29;20054;-77
2022/11/04 07:24:21;;;;;;;12.88;6.35;;;;;;;8.55;77.23;99347.31;10154568;29;20127;-77
2022/11/04 07:29:24;;;;;;;9.90;7.45;;;;;;;8.60;77.68;99354.94;10150637;29;20135;-78
2022/11/04 07:34:27;;;;;;;19.00;8.13;;;;;;;8.64;77.88;99366.22;10155031;29;20044;-77
2022/11/04 07:39:31;;;;;;;11.40;6.13;;;;;;;8.61;77.70;99346.78;10150749;29;20052;-78
2022/11/04 07:44:34;;;;;;;10.93;6.78;;;;;;;8.88;76.67;99361.34;10153022;29;20151;-77
2022/11/04 07:49:37;;;;;;;15.45;7.50;;;;;;;8.89;76.61;99363.03;10153649;29;20127;-78
2022/11/04 07:54:41;;;;;;;;;;;;;;;8.67;77.54;99372.16;10139038;29;20060;-77
2022/11/04 07:59:44;;;;;;;14.07;5.63;;;;;;;8.79;77.28;99378.25;10162081;29;19931;-77
2022/11/04 08:04:47;;;;;;;11.13;5.35;;;;;;;9.25;75.03;99377.59;10170048;29;20059;-77
2022/11/04 08:09:50;;;;;;;;;;;;;;;9.54;73.54;99381.25;10165120;29;20054;-78
2022/11/04 08:14:53;;;;;;;10.35;3.60;;;;;;;9.13;74.08;99392.09;10159711;29;19934;-78
2022/11/04 08:19:56;;;;;;;6.40;4.68;;;;;;;9.23;74.54;99403.69;10158135;29;20127;-78
2022/11/04 08:25:00;;;;;;;;;;;;;;;9.12;74.39;99413.69;10157177;29;20044;-78
2022/11/04 08:30:03;;;;;;;9.98;5.03;;;;;;;9.77;72.63;99414.84;10163329;29;19963;-78
2022/11/04 08:35:08;;;;;;;12.05;4.43;;;;;;;9.52;74.14;99402.88;10165213;29;20078;-78
2022/11/04 08:40:12;;;;;;;14.18;4.68;;;;;;;9.82;72.31;99407.22;10164252;29;20499;-78
2022/11/04 08:45:15;;;;;;;8.95;4.85;;;;;;;9.38;73.19;99422.91;10162344;29;20044;-78
2022/11/04 08:50:18;;;;;;;8.57;3.70;;;;;;;9.39;73.00;99421.91;10162281;29;20116;-77
2022/11/04 08:55:23;;;;;;;11.13;4.13;;;;;;;9.62;72.11;99424.28;10163037;29;20105;-77
2022/11/04 09:00:26;;;;;;;12.05;3.85;;;;;;;10.15;70.83;99438.09;10137831;29;20459;-78
2022/11/04 09:05:29;;;;;;;9.95;3.78;;;;;;;9.83;71.44;99441.09;10145301;29;20495;-78
2022/11/04 09:10:33;;;;;;;8.80;3.60;;;;;;;9.53;71.37;99441.25;10150280;29;20109;-78
2022/11/04 09:15:36;;;;;;;5.97;4.00;;;;;;;9.76;70.07;99439.94;10150458;29;20410;-77
2022/11/04 09:20:40;;;;;;;11.43;3.83;;;;;;;9.98;69.12;99446.03;10157853;29;20175;-77
2022/11/04 09:25:45;;;;;;;9.15;3.83;;;;;;;10.01;70.20;99451.97;10145175;29;20419;-77
2022/11/04 09:30:48;;;;;;;8.20;3.85;;;;;;;10.00;70.25;99441.38;10155038;29;20064;-77
2022/11/04 09:35:54;;;;;;;9.70;3.80;;;;;;;10.09;69.81;99441.38;10138045;29;20057;-77
2022/11/04 09:41:00;;;;;;;9.68;3.60;;;;;;;9.89;69.35;99453.09;10140259;29;20475;-77
2022/11/04 09:46:03;;;;;;;11.02;4.68;;;;;;;10.21;69.83;99458.16;10153095;29;20040;-77
2022/11/04 09:51:07;;;;;;;11.52;5.25;;;;;;;10.26;69.14;99458.56;10167020;29;20115;-77
2022/11/04 09:56:34;;;;;;;9.30;4.85;;;;;;;10.46;67.94;99462.03;10150915;29;20528;-78
2022/11/04 10:01:45;;;;;;;9.40;4.88;;;;;;;10.92;66.85;99451.41;10170015;29;20048;-78
2022/11/04 10:07:10;;;;;;;5.60;4.32;;;;;;;10.71;67.08;99454.31;10160712;29;20464;-77
2022/11/04 10:12:23;;;;;;;12.50;4.85;;;;;;;11.91;64.25;99449.59;10158988;29;20509;-78
2022/11/04 10:17:41;;;;;;;9.40;5.43;;;;;;;12.33;62.48;99456.97;10138412;29;20087;-76
2022/11/04 10:22:57;;;;;;;9.02;5.32;;;;;;;12.62;61.97;99463.06;10154404;29;20041;-77
2022/11/04 10:28:03;;;;;;;11.98;6.50;;;;;;;12.11;62.49;99477.16;10138707;29;20135;-78
2022/11/04 10:33:14;;;;;;;13.73;5.70;;;;;;;11.59;63.88;99473.50;10157683;29;20052;-78
2022/11/04 10:38:21;;;;;;;15.07;8.57;;;;;;;11.18;64.88;99468.53;10152535;29;20069;-78
2022/11/04 10:43:31;;;;;;;11.93;6.88;;;;;;;10.88;65.69;99476.84;10144049;29;20079;-78
2022/11/04 10:48:39;;;;;;;10.15;6.35;;;;;;;10.87;66.12;99485.94;10160920;29;20058;-78
2022/11/04 10:53:41;;;;;;;13.82;7.13;;;;;;;10.92;67.62;99494.38;10155703;29;20139;-77
2022/11/04 10:58:47;;;;;;;11.48;6.05;;;;;;;12.22;61.57;99486.00;10160135;29;20052;-77
2022/11/04 11:03:50;;;;;;;7.30;5.70;;;;;;;12.00;62.18;99498.09;10154473;29;20058;-77
2022/11/04 11:08:55;;;;;;;15.55;7.10;;;;;;;12.56;61.53;99502.22;10137113;29;20052;-78
2022/11/04 11:13:59;;;;;;;10.10;5.25;;;;;;;13.53;57.74;99511.81;10161283;29;20074;-78
2022/11/04 11:19:14;;;;;;;12.50;5.18;;;;;;;13.00;59.56;99510.22;10154119;29;20067;-78
2022/11/04 11:24:22;;;;;;;10.45;5.65;;;;;;;13.16;59.14;99510.28;10145554;29;20163;-77
2022/11/04 11:29:29;;;;;;;8.25;5.07;;;;;;;15.70;53.17;99502.00;10155887;29;20139;-77
2022/11/04 11:34:37;;;;;;;6.55;4.43;;;;;;;16.19;50.66;99498.94;10164211;29;20549;-78
2022/11/04 11:39:44;;;;;;;10.75;4.35;;;;;;;12.37;57.76;99511.38;10139685;29;20438;-77
2022/11/04 11:44:50;;;;;;;6.15;4.43;;;;;;;12.28;61.08;99507.75;10150957;29;20480;-78
2022/11/04 11:50:06;;;;;;;8.50;4.53;;;;;;;12.06;60.70;99510.91;10144931;29;20490;-78
2022/11/04 11:55:15;;;;;;;7.25;4.53;;;;;;;11.24;63.17;99510.97;10155608;29;20044;-78
2022/11/04 12:00:22;;;;;;;8.68;5.07;;;;;;;12.94;59.93;99508.19;10134987;29;20131;-77
2022/11/04 12:05:52;;;;;;;7.88;4.78;;;;;;;14.78;53.05;99483.66;10154674;29;20048;-78
2022/11/04 12:11:19;;;;;;;8.30;4.43;;;;;;;12.50;57.90;99484.03;10161803;29;20337;-78
2022/11/04 12:16:33;;;;;;;11.40;4.20;;;;;;;13.71;56.90;99493.66;10144609;29;20301;-78
2022/11/04 12:21:41;;;;;;;6.88;4.18;;;;;;;14.66;53.67;99486.88;10136248;29;20079;-78
2022/11/04 12:26:52;;;;;;;7.80;4.00;;;;;;;14.03;55.06;99483.88;10149299;29;20080;-78
2022/11/04 12:32:09;;;;;;;8.07;3.47;;;;;;;14.49;54.39;99480.66;10159489;29;20054;-78
2022/11/04 12:37:23;;;;;;;4.80;3.50;;;;;;;14.48;54.05;99487.06;10170206;29;20079;-78
2022/11/04 12:42:36;;;;;;;7.85;3.95;;;;;;;14.62;54.26;99493.63;10160868;29;20237;-78
2022/11/04 12:47:43;;;;;;;9.05;4.72;;;;;;;14.72;53.39;99516.75;10162474;29;20131;-80
2022/11/04 12:53:09;;;;;;;8.68;3.05;;;;;;;14.66;53.30;99519.31;10145153;29;20447;-78
2022/11/04 12:58:26;;;;;;;7.13;2.58;;;;;;;14.97;52.00;99522.09;10160480;29;20048;-78
2022/11/04 13:03:36;;;;;;;6.03;2.50;;;;;;;13.65;54.58;99528.53;10143864;29;20132;-78
2022/11/04 13:08:43;;;;;;;6.72;3.25;;;;;;;13.61;54.96;99527.19;10165669;29;20059;-78
2022/11/04 13:13:46;;;;;;;6.53;2.75;;;;;;;12.44;58.54;99539.38;10142343;29;20071;-78
2022/11/04 13:18:51;;;;;;;5.25;2.70;;;;;;;13.45;56.97;99539.59;10152468;29;20486;-77
2022/11/04 13:23:58;;;;;;;10.40;2.55;;;;;;;13.04;56.31;99544.78;10164080;29;20049;-78
2022/11/04 13:29:07;;;;;;;9.88;3.53;;;;;;;12.31;59.51;99542.50;10163572;29;20083;-78
2022/11/04 13:34:21;;;;;;;8.80;4.13;;;;;;;12.03;60.50;99543.53;10163010;29;20653;-78
2022/11/04 13:39:29;;;;;;;10.75;3.83;;;;;;;11.55;61.37;99550.97;10141920;29;20059;-78
2022/11/04 13:44:37;;;;;;;8.60;3.88;;;;;;;12.45;58.97;99542.91;10148382;29;20080;-78
2022/11/04 13:49:42;;;;;;;11.27;3.30;;;;;;;13.55;56.21;99541.31;10164684;29;20053;-78
2022/11/04 13:54:52;;;;;;;6.47;3.42;;;;;;;12.27;59.69;99543.75;10158241;29;20455;-78
2022/11/04 14:00:22;;;;;;;8.27;4.18;;;;;;;12.42;59.75;99562.06;10143025;29;20072;-78
2022/11/04 14:06:04;;;;;;;12.10;3.80;;;;;;;12.33;60.11;99571.94;10163711;29;20068;-78
2022/11/04 14:11:10;;;;;;;8.13;4.35;;;;;;;12.08;61.15;99595.06;10168882;29;20467;-78
2022/11/04 14:16:41;;;;;;;7.65;4.93;;;;;;;11.81;62.61;99595.97;10163749;29;20403;-78
2022/11/04 14:22:12;;;;;;;6.88;4.18;;;;;;;11.81;62.75;99601.34;10169062;29;20052;-78
2022/11/04 14:27:28;;;;;;;8.07;3.67;;;;;;;11.46;63.72;99613.69;10179417;29;20053;-78
2022/11/04 14:32:36;;;;;;;9.65;4.10;;;;;;;11.34;64.25;99621.13;10171653;29;20052;-78
2022/11/04 14:37:40;;;;;;;5.75;3.60;;;;;;;12.05;63.07;99625.81;10165473;29;20037;-78
2022/11/04 14:42:48;;;;;;;8.30;3.83;;;;;;;13.14;58.54;99628.28;10160637;29;20068;-78
2022/11/04 14:47:55;;;;;;;9.18;3.78;;;;;;;12.66;59.33;99639.53;10152957;29;20079;-78
2022/11/04 14:53:03;;;;;;;9.35;3.13;;;;;;;13.05;58.34;99648.06;10154468;29;20573;-78
2022/11/04 14:58:22;;;;;;;5.97;3.47;;;;;;;12.56;59.81;99656.66;10161487;29;20076;-78
2022/11/04 15:03:28;;;;;;;6.90;3.00;;;;;;;12.24;60.75;99650.94;10155495;29;20047;-77
2022/11/04 15:08:52;;;;;;;6.78;3.10;;;;;;;11.94;61.93;99655.66;10145283;29;20080;-77
2022/11/04 15:13:58;;;;;;;7.32;2.45;;;;;;;11.70;61.71;99662.41;10159915;29;20495;-77
2022/11/04 15:19:01;;;;;;;5.82;3.03;;;;;;;11.38;62.84;99668.25;10155068;29;20052;-80
2022/11/04 15:24:06;;;;;;;3.72;2.38;;;;;;;11.02;64.32;99668.00;10173192;29;20068;-78
2022/11/04 15:29:11;;;;;;;8.77;3.28;;;;;;;10.89;64.54;99671.97;10159742;29;20139;-78
2022/11/04 15:34:15;;;;;;;5.47;2.55;;;;;;;10.65;65.49;99680.50;10155345;29;20045;-78
2022/11/04 15:39:21;;;;;;;6.45;2.92;;;;;;;10.88;64.63;99694.47;10170311;29;20056;-79
2022/11/04 15:44:27;;;;;;;9.50;2.60;;;;;;;11.20;64.16;99696.88;10172655;29;20072;-78
2022/11/04 15:49:31;;;;;;;7.32;2.75;;;;;;;11.17;64.53;99711.44;10139527;29;20123;-80
2022/11/04 15:54:37;;;;;;;3.58;2.25;;;;;;;10.98;65.45;99724.88;10148811;29;20075;-77
2022/11/04 15:59:46;;;;;;;6.38;2.70;;;;;;;10.97;66.10;99729.41;10152200;29;20041;-79
2022/11/04 16:05:02;;;;;;;3.95;2.20;;;;;;;10.53;66.55;99734.38;10158227;29;20052;-78
2022/11/04 16:10:25;;;;;;;5.22;1.60;;;;;;;10.10;65.23;99746.28;10153351;29;20044;-78
2022/11/04 16:15:34;;;;;;;1.95;1.05;;;;;;;10.31;63.84;99748.88;10159002;29;20045;-78
2022/11/04 16:20:37;;;;;;;1.08;0.80;;;;;;;10.11;64.97;99756.03;10164584;29;20640;-78
2022/11/04 16:25:41;;;;;;;1.83;0.80;;;;;;;9.84;69.16;99759.28;10161677;29;20056;-78
2022/11/04 16:30:56;;;;;;;1.52;0.93;;;;;;;9.61;72.81;99774.69;10163796;29;20056;-77
2022/11/04 16:35:59;;;;;;;2.47;1.00;;;;;;;9.64;74.77;99777.13;10163678;29;20537;-77
2022/11/04 16:41:03;;;;;;;1.48;0.90;;;;;;;9.42;73.94;99774.59;10159160;29;20514;-78
2022/11/04 16:46:06;;;;;;;2.85;1.20;;;;;;;9.18;73.96;99775.69;10161101;29;20063;-77
2022/11/04 16:51:10;;;;;;;;;;;;;;;9.05;74.16;99775.03;10164403;29;20052;-77
2022/11/04 16:56:15;;;;;;;5.53;1.73;;;;;;;9.34;74.68;99775.25;10179091;29;20001;-78
2022/11/04 17:01:19;;;;;;;3.45;1.85;;;;;;;9.43;75.22;99787.00;10175517;29;20055;-78
2022/11/04 17:06:24;;;;;;;4.97;2.95;;;;;;;9.32;74.19;99795.97;10150789;29;20490;-78
2022/11/04 17:11:29;;;;;;;6.30;2.45;;;;;;;9.06;74.51;99788.31;10154886;29;20102;-78
2022/11/04 17:16:32;;;;;;;4.65;2.25;;;;;;;8.99;75.63;99800.50;10158735;29;20045;-77
2022/11/04 17:21:35;;;;;;;2.97;2.63;;;;;;;8.98;76.88;99809.53;10152700;29;20056;-77
2022/11/04 17:26:39;;;;;;;6.70;3.55;;;;;;;8.92;77.46;99815.41;10160669;29;20119;-77
2022/11/04 17:31:42;;;;;;;5.90;3.38;;;;;;;8.85;77.58;99822.25;10152556;29;20574;-77
2022/11/04 17:36:45;;;;;;;6.28;4.43;;;;;;;8.80;78.29;99827.13;10154967;29;20139;-77
2022/11/04 17:47:10;;;;;;;7.35;4.00;;;;;;;8.60;78.05;99834.97;10159471;29;20144;-77
2022/11/04 17:52:12;;;;;;;7.43;4.38;;;;;;;8.52;78.56;99828.53;10153456;29;20044;-77
2022/11/04 17:57:17;;;;;;;8.10;4.88;;;;;;;8.47;78.81;99838.78;10156715;29;20048;-77
2022/11/04 18:02:20;;;;;;;5.95;4.53;;;;;;;8.36;78.48;99859.22;10149177;29;20064;-77
2022/11/04 18:07:23;;;;;;;10.73;5.68;;;;;;;8.36;78.66;99856.53;10139569;29;20120;-77
2022/11/04 18:12:40;;;;;;;14.13;6.55;;;;;;;8.51;78.64;99859.81;10153956;29;20131;-77
2022/11/04 18:17:44;;;;;;;15.93;7.88;;;;;;;8.65;78.52;99864.06;10158344;29;20491;-77
2022/11/04 18:22:47;;;;;;;13.63;7.47;;;;;;;8.64;78.26;99873.06;10152785;29;20067;-77
2022/11/04 18:27:51;;;;;;;;;;;;;;;8.51;78.64;99872.34;10149453;29;20135;-77
2022/11/04 18:32:54;;;;;;;10.40;7.60;;;;;;;8.52;78.88;99887.44;10148311;29;19979;-77
2022/11/04 18:37:57;;;;;;;13.10;8.32;;;;;;;8.57;78.92;99888.75;10157210;29;20048;-77
2022/11/04 18:43:02;;;;;;;13.40;8.90;;;;;;;8.61;79.02;99902.75;10152991;29;20139;-77
2022/11/04 18:48:10;;;;;;;19.02;8.32;;;;;;;8.59;79.02;99897.53;10152447;29;20052;-77
2022/11/04 18:53:14;;;;;;;12.73;7.85;;;;;;;8.56;79.13;99902.28;10151893;29;20049;-77
2022/11/04 18:58:18;;;;;;;11.85;7.63;;;;;;;8.39;79.06;99898.22;10152619;29;20148;-78
2022/11/04 19:03:22;;;;;;;13.95;7.88;;;;;;;8.24;79.09;99915.50;10133697;29;20048;-77
2022/11/04 19:08:25;;;;;;;14.35;7.97;;;;;;;8.16;79.68;99908.94;10138201;29;20045;-77
2022/11/04 19:13:29;;;;;;;14.15;8.43;;;;;;;8.11;79.86;99903.09;10148076;29;20103;-77
2022/11/04 19:18:31;;;;;;;14.60;9.38;;;;;;;8.07;80.01;99912.34;10144544;29;20135;-78
2022/11/04 19:23:35;;;;;;;15.75;9.32;;;;;;;8.04;80.24;99927.78;10154289;29;20064;-76
2022/11/04 19:28:41;;;;;;;13.77;9.05;;;;;;;8.06;80.32;99932.00;10149542;29;20127;-76
2022/11/04 19:33:50;;;;;;;11.93;9.18;;;;;;;8.11;80.25;99945.88;10157133;29;20115;-77
2022/11/04 19:38:54;;;;;;;15.10;8.77;;;;;;;8.06;79.85;99944.53;10151815;29;20127;-76
2022/11/04 19:43:58;;;;;;;13.30;9.00;;;;;;;8.04;80.02;99955.38;10152591;29;20104;-77
2022/11/04 19:49:02;;;;;;;13.30;10.45;;;;;;;8.13;80.12;99957.31;10155935;29;20067;-76
2022/11/04 19:54:05;;;;;;;16.13;10.68;;;;;;;8.11;79.75;99956.59;10164426;29;20509;-77
2022/11/04 19:59:11;;;;;;;29.83;11.38;;;;;;;8.24;79.98;99964.53;10162124;29;20068;-77
2022/11/04 20:04:14;;;;;;;17.58;10.82;;;;;;;8.29;79.69;99975.72;10169035;29;20044;-77
2022/11/04 20:09:17;;;;;;;16.02;11.75;;;;;;;8.31;79.86;99983.63;10165173;29;20509;-76
2022/11/04 20:14:21;;;;;;;15.65;10.68;;;;;;;8.19;79.98;99990.78;10179439;29;20048;-78
2022/11/04 20:19:24;;;;;;;19.15;11.45;;;;;;;8.10;80.11;99992.34;10183674;29;20068;-78
2022/11/04 20:24:27;;;;;;;17.80;12.50;;;;;;;8.04;80.18;99998.19;10176305;29;20561;-76
2022/11/04 20:29:31;;;;;;;18.25;12.23;;;;;;;8.07;80.50;100000.63;10173587;29;20067;-78
2022/11/04 20:34:34;;;;;;;23.60;12.38;;;;;;;8.10;80.73;100013.75;10191523;29;20046;-78
2022/11/04 20:39:38;;;;;;;13.90;11.25;;;;;;;8.04;80.31;100014.22;10175863;29;20056;-77
2022/11/04 20:44:42;;;;;;;16.92;11.68;;;;;;;8.03;80.41;100025.03;10173136;29;20049;-76
2022/11/04 20:49:45;;;;;;;18.35;12.13;;;;;;;7.93;80.64;100038.25;10160403;29;20080;-78
2022/11/04 20:54:48;;;;;;;17.90;13.38;;;;;;;7.65;81.33;100043.00;10153685;29;20110;-79
2022/11/04 20:59:53;;;;;;;21.58;13.38;;;;;;;7.53;81.52;100043.91;10174429;29;20578;-77
2022/11/04 21:04:55;;;;;;;21.42;13.68;;;;;;;7.50;81.66;100055.66;10202701;29;20032;-77
2022/11/04 21:09:58;;;;;;;26.63;15.52;;;;;;;7.53;81.63;100067.97;10205724;29;20052;-77
2022/11/04 21:15:03;;;;;;;;;;;;;;;7.54;81.90;100064.31;10176316;29;20087;-77
2022/11/04 21:20:07;;;;;;;27.88;14.65;;;;;;;7.55;82.15;100067.84;10165234;29;20301;-77
2022/11/04 21:25:10;;;;;;;26.10;14.75;;;;;;;7.54;82.27;100066.97;10157473;29;20111;-77
2022/11/04 21:30:14;;;;;;;;;;;;;;;7.51;81.80;100077.91;10159477;29;20057;-77
2022/11/04 21:35:17;;;;;;;27.38;14.52;;;;;;;7.43;82.30;100077.59;10156683;29;20407;-76
2022/11/04 21:40:19;;;;;;;21.25;13.65;;;;;;;7.42;82.03;100091.94;10164674;29;20052;-76
2022/11/04 21:45:23;;;;;;;;;;;;;;;7.45;81.92;100092.56;10159149;29;20134;-77
2022/11/04 21:50:26;;;;;;;22.50;13.27;;;;;;;7.44;81.40;100095.38;10146350;29;19930;-77
2022/11/04 21:55:29;;;;;;;23.98;13.90;;;;;;;7.40;81.63;100093.88;10148029;29;20040;-77
2022/11/04 22:00:33;;;;;;;22.02;12.50;;;;;;;7.32;81.77;100112.25;10169843;29;20139;-77
2022/11/04 22:05:36;;;;;;;18.00;12.55;;;;;;;7.33;81.61;100108.66;10153866;29;20076;-77
2022/11/04 22:10:39;;;;;;;;;;;;;;;7.34;81.28;100121.03;10156824;29;20134;-77
2022/11/04 22:15:58;;;;;;;24.73;14.63;;;;;;;7.33;81.07;100124.69;10171123;29;19935;-77
2022/11/04 22:21:03;;;;;;;24.75;14.90;;;;;;;7.32;81.08;100120.28;10160667;29;20131;-77
2022/11/04 22:26:09;;;;;;;22.13;14.23;;;;;;;7.25;81.30;100122.56;10153836;29;20044;-78
2022/11/04 22:31:15;;;;;;;21.95;11.85;;;;;;;7.21;81.37;100121.94;10165272;29;20146;-76
2022/11/04 22:36:19;;;;;;;22.73;13.55;;;;;;;7.19;81.56;100131.00;10171284;29;20076;-75
2022/11/04 22:41:25;;;;;;;21.30;13.32;;;;;;;7.17;81.11;100133.78;10156930;29;20079;-76
2022/11/04 22:46:32;;;;;;;20.83;12.52;;;;;;;7.21;81.13;100135.28;10158943;29;20123;-77
2022/11/04 22:51:34;;;;;;;18.55;11.90;;;;;;;7.24;81.00;100136.84;10154443;29;20092;-77
2022/11/04 22:56:37;;;;;;;21.05;12.10;;;;;;;7.05;80.90;100140.84;10145037;29;20052;-77
2022/11/04 23:01:41;;;;;;;22.63;12.52;;;;;;;6.94;81.08;100148.75;10135551;29;20135;-77
2022/11/04 23:06:44;;;;;;;21.90;12.27;;;;;;;6.99;81.32;100165.31;10165961;29;20055;-76
2022/11/04 23:37:10;;;;;;;17.52;9.82;;;;;;;6.54;82.15;100178.13;10174271;29;20086;-77
2022/11/04 23:38:41;;;;;;;22.85;12.75;;;;;;;6.65;82.83;100182.75;10173849;29;20074;-78
2022/11/04 23:43:51;;;;;;;22.45;12.57;;;;;;;6.83;82.71;100181.50;10148487;29;20052;-76
